sensor_id;sensor_type;location;lat;lon;timestamp;temperature;humidity
29551;DHT22;16488;52.396;10.696;2023-06-26T00:00:14;19.60;99.90
29551;DHT22;16488;52.396;10.696;2023-06-26T00:02:40;19.60;99.90
29551;DHT22;16488;52.396;10.696;2023-06-26T00:05:06;19.40;99.90
29551;DHT22;16488;52.396;10.696;2023-06-26T00:07:32;19.40;99.90
29551;DHT22;16488;52.396;10.696;2023-06-26T00:10:01;19.30;99.90
29551;DHT22;16488;52.396;10.696;2023-06-26T00:12:28;19.30;99.90
29551;DHT22;16488;52.396;10.696;2023-06-26T00:14:53;19.20;99.90
29551;DHT22;16488;52.396;10.696;2023-06-26T00:17:20;19.20;99.90
29551;DHT22;16488;52.396;10.696;2023-06-26T00:19:46;19.10;99.90
29551;DHT22;16488;52.396;10.696;2023-06-26T00:22:12;19.10;99.90
29551;DHT22;16488;52.396;10.696;2023-06-26T00:24:38;19.10;99.90
29551;DHT22;16488;52.396;10.696;2023-06-26T00:27:03;19.00;99.90
29551;DHT22;16488;52.396;10.696;2023-06-26T00:29:29;19.00;99.90
29551;DHT22;16488;52.396;10.696;2023-06-26T00:31:54;19.00;99.90
29551;DHT22;16488;52.396;10.696;2023-06-26T00:34:20;18.90;99.90
29551;DHT22;16488;52.396;10.696;2023-06-26T00:36:46;18.90;99.90
29551;DHT22;16488;52.396;10.696;2023-06-26T00:39:11;18.90;99.90
29551;DHT22;16488;52.396;10.696;2023-06-26T00:41:37;18.80;99.90
29551;DHT22;16488;52.396;10.696;2023-06-26T00:44:04;18.90;99.90
29551;DHT22;16488;52.396;10.696;2023-06-26T00:46:30;18.90;99.90
29551;DHT22;16488;52.396;10.696;2023-06-26T00:48:59;18.80;99.90
29551;DHT22;16488;52.396;10.696;2023-06-26T00:51:26;18.80;99.90
29551;DHT22;16488;52.396;10.696;2023-06-26T00:53:52;18.70;99.90
29551;DHT22;16488;52.396;10.696;2023-06-26T00:56:19;18.80;99.90
29551;DHT22;16488;52.396;10.696;2023-06-26T00:58:45;18.80;99.90
29551;DHT22;16488;52.396;10.696;2023-06-26T01:01:11;18.90;99.90
29551;DHT22;16488;52.396;10.696;2023-06-26T01:03:41;18.80;99.90
29551;DHT22;16488;52.396;10.696;2023-06-26T01:06:07;18.80;99.90
29551;DHT22;16488;52.396;10.696;2023-06-26T01:08:37;18.80;99.90
29551;DHT22;16488;52.396;10.696;2023-06-26T01:11:03;18.80;99.90
29551;DHT22;16488;52.396;10.696;2023-06-26T01:13:29;18.70;99.90
29551;DHT22;16488;52.396;10.696;2023-06-26T01:15:57;18.70;99.90
29551;DHT22;16488;52.396;10.696;2023-06-26T01:18:24;18.70;99.90
29551;DHT22;16488;52.396;10.696;2023-06-26T01:20:50;18.70;99.90
29551;DHT22;16488;52.396;10.696;2023-06-26T01:28:34;18.60;99.90
29551;DHT22;16488;52.396;10.696;2023-06-26T01:31:02;18.70;99.90
29551;DHT22;16488;52.396;10.696;2023-06-26T01:33:28;18.60;99.90
29551;DHT22;16488;52.396;10.696;2023-06-26T01:35:54;18.60;99.90
29551;DHT22;16488;52.396;10.696;2023-06-26T01:38:20;18.60;99.90
29551;DHT22;16488;52.396;10.696;2023-06-26T01:40:49;18.60;99.90
29551;DHT22;16488;52.396;10.696;2023-06-26T01:43:21;18.60;99.90
29551;DHT22;16488;52.396;10.696;2023-06-26T01:45:51;18.50;99.90
29551;DHT22;16488;52.396;10.696;2023-06-26T01:48:23;18.40;99.90
29551;DHT22;16488;52.396;10.696;2023-06-26T01:50:52;18.30;99.90
29551;DHT22;16488;52.396;10.696;2023-06-26T01:53:23;18.30;99.90
29551;DHT22;16488;52.396;10.696;2023-06-26T01:55:53;18.30;99.90
29551;DHT22;16488;52.396;10.696;2023-06-26T01:58:24;18.20;99.90
29551;DHT22;16488;52.396;10.696;2023-06-26T02:00:50;18.20;99.90
29551;DHT22;16488;52.396;10.696;2023-06-26T02:03:16;18.20;99.90
29551;DHT22;16488;52.396;10.696;2023-06-26T02:05:42;18.20;99.90
29551;DHT22;16488;52.396;10.696;2023-06-26T02:08:08;18.20;99.90
29551;DHT22;16488;52.396;10.696;2023-06-26T02:10:34;18.30;99.90
29551;DHT22;16488;52.396;10.696;2023-06-26T02:13:00;18.30;99.90
29551;DHT22;16488;52.396;10.696;2023-06-26T02:15:26;18.30;99.90
29551;DHT22;16488;52.396;10.696;2023-06-26T02:17:51;18.30;99.90
29551;DHT22;16488;52.396;10.696;2023-06-26T02:20:17;18.30;99.90
29551;DHT22;16488;52.396;10.696;2023-06-26T02:22:42;18.20;99.90
29551;DHT22;16488;52.396;10.696;2023-06-26T02:25:09;18.20;99.90
29551;DHT22;16488;52.396;10.696;2023-06-26T02:27:35;18.10;99.90
29551;DHT22;16488;52.396;10.696;2023-06-26T02:30:01;18.10;99.90
29551;DHT22;16488;52.396;10.696;2023-06-26T02:32:27;18.00;99.90
29551;DHT22;16488;52.396;10.696;2023-06-26T02:34:53;17.90;99.90
29551;DHT22;16488;52.396;10.696;2023-06-26T02:37:19;17.90;99.90
29551;DHT22;16488;52.396;10.696;2023-06-26T02:39:45;17.90;99.90
29551;DHT22;16488;52.396;10.696;2023-06-26T02:42:10;17.80;99.90
29551;DHT22;16488;52.396;10.696;2023-06-26T02:44:36;17.80;99.90
29551;DHT22;16488;52.396;10.696;2023-06-26T02:47:01;17.70;99.90
29551;DHT22;16488;52.396;10.696;2023-06-26T02:49:27;17.70;99.90
29551;DHT22;16488;52.396;10.696;2023-06-26T02:51:53;17.70;99.90
29551;DHT22;16488;52.396;10.696;2023-06-26T02:54:18;17.80;99.90
29551;DHT22;16488;52.396;10.696;2023-06-26T02:56:44;17.70;99.90
29551;DHT22;16488;52.396;10.696;2023-06-26T02:59:09;17.70;99.90
29551;DHT22;16488;52.396;10.696;2023-06-26T03:01:35;17.70;99.90
29551;DHT22;16488;52.396;10.696;2023-06-26T03:04:00;17.70;99.90
29551;DHT22;16488;52.396;10.696;2023-06-26T03:06:27;17.80;99.90
29551;DHT22;16488;52.396;10.696;2023-06-26T03:08:53;17.90;99.90
29551;DHT22;16488;52.396;10.696;2023-06-26T03:11:19;17.80;99.90
29551;DHT22;16488;52.396;10.696;2023-06-26T03:13:44;17.70;99.90
29551;DHT22;16488;52.396;10.696;2023-06-26T03:16:10;17.60;99.90
29551;DHT22;16488;52.396;10.696;2023-06-26T03:18:36;17.50;99.90
29551;DHT22;16488;52.396;10.696;2023-06-26T03:21:02;17.50;99.90
29551;DHT22;16488;52.396;10.696;2023-06-26T03:23:27;17.50;99.90
29551;DHT22;16488;52.396;10.696;2023-06-26T03:25:53;17.60;99.90
29551;DHT22;16488;52.396;10.696;2023-06-26T03:28:19;17.70;99.90
29551;DHT22;16488;52.396;10.696;2023-06-26T03:30:45;17.70;99.90
29551;DHT22;16488;52.396;10.696;2023-06-26T03:33:11;17.70;99.90
29551;DHT22;16488;52.396;10.696;2023-06-26T03:35:37;17.80;99.90
29551;DHT22;16488;52.396;10.696;2023-06-26T03:38:03;17.80;99.90
29551;DHT22;16488;52.396;10.696;2023-06-26T03:40:29;17.90;99.90
29551;DHT22;16488;52.396;10.696;2023-06-26T03:42:55;17.90;99.90
29551;DHT22;16488;52.396;10.696;2023-06-26T03:45:20;17.90;99.90
29551;DHT22;16488;52.396;10.696;2023-06-26T03:47:46;18.00;99.90
29551;DHT22;16488;52.396;10.696;2023-06-26T03:50:18;18.00;99.90
29551;DHT22;16488;52.396;10.696;2023-06-26T03:52:44;18.10;99.90
29551;DHT22;16488;52.396;10.696;2023-06-26T03:55:10;18.10;99.90
29551;DHT22;16488;52.396;10.696;2023-06-26T03:57:36;18.20;99.90
29551;DHT22;16488;52.396;10.696;2023-06-26T04:00:02;18.30;99.90
29551;DHT22;16488;52.396;10.696;2023-06-26T04:02:33;18.40;99.90
29551;DHT22;16488;52.396;10.696;2023-06-26T04:04:59;18.40;99.90
29551;DHT22;16488;52.396;10.696;2023-06-26T04:07:25;18.40;99.90
29551;DHT22;16488;52.396;10.696;2023-06-26T04:09:51;18.50;99.90
29551;DHT22;16488;52.396;10.696;2023-06-26T04:12:17;18.50;99.90
29551;DHT22;16488;52.396;10.696;2023-06-26T04:14:42;18.50;99.90
29551;DHT22;16488;52.396;10.696;2023-06-26T04:17:08;18.50;99.90
29551;DHT22;16488;52.396;10.696;2023-06-26T04:19:33;18.50;99.90
29551;DHT22;16488;52.396;10.696;2023-06-26T04:22:01;18.50;99.90
29551;DHT22;16488;52.396;10.696;2023-06-26T04:24:27;18.60;99.90
29551;DHT22;16488;52.396;10.696;2023-06-26T04:26:52;18.60;99.90
29551;DHT22;16488;52.396;10.696;2023-06-26T04:29:18;18.70;99.90
29551;DHT22;16488;52.396;10.696;2023-06-26T04:31:43;18.70;99.90
29551;DHT22;16488;52.396;10.696;2023-06-26T04:34:12;18.80;99.90
29551;DHT22;16488;52.396;10.696;2023-06-26T04:36:38;18.80;99.90
29551;DHT22;16488;52.396;10.696;2023-06-26T04:39:04;18.90;99.90
29551;DHT22;16488;52.396;10.696;2023-06-26T04:41:30;19.00;99.90
29551;DHT22;16488;52.396;10.696;2023-06-26T04:43:55;19.10;99.90
29551;DHT22;16488;52.396;10.696;2023-06-26T04:46:21;19.20;99.90
29551;DHT22;16488;52.396;10.696;2023-06-26T04:48:46;19.20;99.90
29551;DHT22;16488;52.396;10.696;2023-06-26T04:51:12;19.40;99.90
29551;DHT22;16488;52.396;10.696;2023-06-26T04:53:37;19.50;99.90
29551;DHT22;16488;52.396;10.696;2023-06-26T04:56:03;19.60;99.90
29551;DHT22;16488;52.396;10.696;2023-06-26T04:58:29;19.80;99.90
29551;DHT22;16488;52.396;10.696;2023-06-26T05:00:55;19.90;99.90
29551;DHT22;16488;52.396;10.696;2023-06-26T05:03:22;20.00;99.90
29551;DHT22;16488;52.396;10.696;2023-06-26T05:05:47;20.10;99.90
29551;DHT22;16488;52.396;10.696;2023-06-26T05:10:45;20.30;99.90
29551;DHT22;16488;52.396;10.696;2023-06-26T05:13:11;20.40;99.90
29551;DHT22;16488;52.396;10.696;2023-06-26T05:15:40;20.50;99.90
29551;DHT22;16488;52.396;10.696;2023-06-26T05:18:07;20.60;99.90
29551;DHT22;16488;52.396;10.696;2023-06-26T05:20:34;20.60;99.90
29551;DHT22;16488;52.396;10.696;2023-06-26T05:23:02;20.70;99.90
29551;DHT22;16488;52.396;10.696;2023-06-26T05:25:29;20.80;99.90
29551;DHT22;16488;52.396;10.696;2023-06-26T05:27:56;20.90;99.90
29551;DHT22;16488;52.396;10.696;2023-06-26T05:30:22;21.10;99.90
29551;DHT22;16488;52.396;10.696;2023-06-26T05:32:51;21.10;99.90
29551;DHT22;16488;52.396;10.696;2023-06-26T05:35:18;21.20;99.90
29551;DHT22;16488;52.396;10.696;2023-06-26T05:37:45;21.20;99.90
29551;DHT22;16488;52.396;10.696;2023-06-26T05:40:13;21.30;99.90
29551;DHT22;16488;52.396;10.696;2023-06-26T05:42:39;21.40;99.90
29551;DHT22;16488;52.396;10.696;2023-06-26T05:45:05;21.50;99.90
29551;DHT22;16488;52.396;10.696;2023-06-26T05:47:31;21.60;99.90
29551;DHT22;16488;52.396;10.696;2023-06-26T05:49:56;21.60;99.90
29551;DHT22;16488;52.396;10.696;2023-06-26T05:52:22;21.70;99.90
29551;DHT22;16488;52.396;10.696;2023-06-26T05:54:48;21.80;99.90
29551;DHT22;16488;52.396;10.696;2023-06-26T05:57:15;21.80;99.90
29551;DHT22;16488;52.396;10.696;2023-06-26T05:59:43;21.90;99.90
29551;DHT22;16488;52.396;10.696;2023-06-26T06:02:09;21.90;99.90
29551;DHT22;16488;52.396;10.696;2023-06-26T06:04:35;22.00;99.90
29551;DHT22;16488;52.396;10.696;2023-06-26T06:07:02;22.10;99.90
29551;DHT22;16488;52.396;10.696;2023-06-26T06:09:28;22.10;99.90
29551;DHT22;16488;52.396;10.696;2023-06-26T06:11:53;22.20;99.90
29551;DHT22;16488;52.396;10.696;2023-06-26T06:14:19;22.30;99.90
29551;DHT22;16488;52.396;10.696;2023-06-26T06:16:44;22.40;99.90
29551;DHT22;16488;52.396;10.696;2023-06-26T06:19:10;22.50;99.90
29551;DHT22;16488;52.396;10.696;2023-06-26T06:21:38;22.50;99.90
29551;DHT22;16488;52.396;10.696;2023-06-26T06:24:04;22.60;99.90
29551;DHT22;16488;52.396;10.696;2023-06-26T06:26:29;22.70;99.90
29551;DHT22;16488;52.396;10.696;2023-06-26T06:28:55;22.80;99.90
29551;DHT22;16488;52.396;10.696;2023-06-26T06:31:20;22.90;99.90
29551;DHT22;16488;52.396;10.696;2023-06-26T06:33:46;23.10;99.90
29551;DHT22;16488;52.396;10.696;2023-06-26T06:36:12;23.10;99.90
29551;DHT22;16488;52.396;10.696;2023-06-26T06:38:37;23.20;99.90
29551;DHT22;16488;52.396;10.696;2023-06-26T06:41:03;23.40;99.90
29551;DHT22;16488;52.396;10.696;2023-06-26T06:43:28;23.50;99.90
29551;DHT22;16488;52.396;10.696;2023-06-26T06:45:54;23.60;99.90
29551;DHT22;16488;52.396;10.696;2023-06-26T06:48:20;23.80;99.90
29551;DHT22;16488;52.396;10.696;2023-06-26T06:50:45;23.90;99.90
29551;DHT22;16488;52.396;10.696;2023-06-26T06:53:11;24.00;99.90
29551;DHT22;16488;52.396;10.696;2023-06-26T06:55:36;24.10;99.90
29551;DHT22;16488;52.396;10.696;2023-06-26T06:58:02;24.20;99.90
29551;DHT22;16488;52.396;10.696;2023-06-26T07:00:28;24.30;99.90
29551;DHT22;16488;52.396;10.696;2023-06-26T07:02:53;24.30;99.90
29551;DHT22;16488;52.396;10.696;2023-06-26T07:05:19;24.20;99.90
29551;DHT22;16488;52.396;10.696;2023-06-26T07:07:45;24.20;99.90
29551;DHT22;16488;52.396;10.696;2023-06-26T07:10:13;24.30;99.90
29551;DHT22;16488;52.396;10.696;2023-06-26T07:12:39;24.50;99.90
29551;DHT22;16488;52.396;10.696;2023-06-26T07:15:06;24.50;99.90
29551;DHT22;16488;52.396;10.696;2023-06-26T07:17:32;24.60;99.90
29551;DHT22;16488;52.396;10.696;2023-06-26T07:19:59;24.70;99.90
29551;DHT22;16488;52.396;10.696;2023-06-26T07:22:25;24.80;99.90
29551;DHT22;16488;52.396;10.696;2023-06-26T07:24:50;24.90;99.90
29551;DHT22;16488;52.396;10.696;2023-06-26T07:27:16;25.00;99.90
29551;DHT22;16488;52.396;10.696;2023-06-26T07:29:43;25.10;99.90
29551;DHT22;16488;52.396;10.696;2023-06-26T07:32:09;25.20;99.90
29551;DHT22;16488;52.396;10.696;2023-06-26T07:34:35;25.30;99.90
29551;DHT22;16488;52.396;10.696;2023-06-26T07:37:00;25.40;99.90
29551;DHT22;16488;52.396;10.696;2023-06-26T07:39:26;25.40;99.90
29551;DHT22;16488;52.396;10.696;2023-06-26T07:41:52;25.50;99.90
29551;DHT22;16488;52.396;10.696;2023-06-26T07:44:18;25.50;99.90
29551;DHT22;16488;52.396;10.696;2023-06-26T07:46:43;25.60;99.90
29551;DHT22;16488;52.396;10.696;2023-06-26T07:49:11;25.60;99.90
29551;DHT22;16488;52.396;10.696;2023-06-26T07:51:37;25.60;99.90
29551;DHT22;16488;52.396;10.696;2023-06-26T07:54:02;25.60;99.90
29551;DHT22;16488;52.396;10.696;2023-06-26T07:56:28;25.60;99.90
29551;DHT22;16488;52.396;10.696;2023-06-26T07:58:53;25.60;99.90
29551;DHT22;16488;52.396;10.696;2023-06-26T08:01:19;25.50;99.90
29551;DHT22;16488;52.396;10.696;2023-06-26T08:03:44;25.40;99.90
29551;DHT22;16488;52.396;10.696;2023-06-26T08:06:10;25.30;99.90
29551;DHT22;16488;52.396;10.696;2023-06-26T08:08:36;25.30;99.90
29551;DHT22;16488;52.396;10.696;2023-06-26T08:11:02;25.50;99.90
29551;DHT22;16488;52.396;10.696;2023-06-26T08:13:28;25.60;99.90
29551;DHT22;16488;52.396;10.696;2023-06-26T08:15:53;25.80;99.90
29551;DHT22;16488;52.396;10.696;2023-06-26T08:18:20;26.00;99.90
29551;DHT22;16488;52.396;10.696;2023-06-26T08:20:45;26.10;99.90
29551;DHT22;16488;52.396;10.696;2023-06-26T08:23:11;26.10;99.90
29551;DHT22;16488;52.396;10.696;2023-06-26T08:25:36;26.20;99.90
29551;DHT22;16488;52.396;10.696;2023-06-26T08:28:02;26.30;99.90
29551;DHT22;16488;52.396;10.696;2023-06-26T08:30:28;26.30;99.90
29551;DHT22;16488;52.396;10.696;2023-06-26T08:32:55;26.40;99.90
29551;DHT22;16488;52.396;10.696;2023-06-26T08:35:21;26.40;99.90
29551;DHT22;16488;52.396;10.696;2023-06-26T08:37:47;26.50;99.90
29551;DHT22;16488;52.396;10.696;2023-06-26T08:40:16;26.70;99.90
29551;DHT22;16488;52.396;10.696;2023-06-26T08:42:42;26.80;99.90
29551;DHT22;16488;52.396;10.696;2023-06-26T08:45:08;26.80;99.90
29551;DHT22;16488;52.396;10.696;2023-06-26T08:47:35;26.60;99.80
29551;DHT22;16488;52.396;10.696;2023-06-26T08:50:07;26.40;99.90
29551;DHT22;16488;52.396;10.696;2023-06-26T08:52:37;26.50;99.90
29551;DHT22;16488;52.396;10.696;2023-06-26T08:55:09;26.70;99.90
29551;DHT22;16488;52.396;10.696;2023-06-26T08:57:36;26.80;99.80
29551;DHT22;16488;52.396;10.696;2023-06-26T09:00:02;26.70;99.90
29551;DHT22;16488;52.396;10.696;2023-06-26T09:02:29;26.70;99.90
29551;DHT22;16488;52.396;10.696;2023-06-26T09:04:54;26.60;99.90
29551;DHT22;16488;52.396;10.696;2023-06-26T09:07:20;26.60;99.90
29551;DHT22;16488;52.396;10.696;2023-06-26T09:09:46;26.70;99.90
29551;DHT22;16488;52.396;10.696;2023-06-26T09:12:12;26.90;99.90
29551;DHT22;16488;52.396;10.696;2023-06-26T09:14:38;26.90;99.90
29551;DHT22;16488;52.396;10.696;2023-06-26T09:17:04;26.80;99.90
29551;DHT22;16488;52.396;10.696;2023-06-26T09:19:30;26.80;99.90
29551;DHT22;16488;52.396;10.696;2023-06-26T09:21:55;26.90;99.90
29551;DHT22;16488;52.396;10.696;2023-06-26T09:24:21;27.00;99.90
29551;DHT22;16488;52.396;10.696;2023-06-26T09:26:48;27.10;99.90
29551;DHT22;16488;52.396;10.696;2023-06-26T09:31:44;27.10;99.90
29551;DHT22;16488;52.396;10.696;2023-06-26T09:34:09;27.00;99.90
29551;DHT22;16488;52.396;10.696;2023-06-26T09:36:36;27.00;99.90
29551;DHT22;16488;52.396;10.696;2023-06-26T09:39:03;27.00;99.90
29551;DHT22;16488;52.396;10.696;2023-06-26T09:41:43;27.00;99.90
29551;DHT22;16488;52.396;10.696;2023-06-26T09:44:14;27.20;99.90
29551;DHT22;16488;52.396;10.696;2023-06-26T09:46:40;27.40;99.90
29551;DHT22;16488;52.396;10.696;2023-06-26T09:49:10;27.40;99.90
29551;DHT22;16488;52.396;10.696;2023-06-26T09:51:38;27.50;99.90
29551;DHT22;16488;52.396;10.696;2023-06-26T09:54:05;27.50;98.50
29551;DHT22;16488;52.396;10.696;2023-06-26T09:56:32;27.60;98.60
29551;DHT22;16488;52.396;10.696;2023-06-26T09:59:01;27.50;99.20
29551;DHT22;16488;52.396;10.696;2023-06-26T10:01:27;27.50;99.30
29551;DHT22;16488;52.396;10.696;2023-06-26T10:03:54;27.20;99.10
29551;DHT22;16488;52.396;10.696;2023-06-26T10:06:31;27.30;99.90
29551;DHT22;16488;52.396;10.696;2023-06-26T10:09:00;27.30;99.90
29551;DHT22;16488;52.396;10.696;2023-06-26T10:11:35;27.30;99.90
29551;DHT22;16488;52.396;10.696;2023-06-26T10:14:03;27.40;99.90
29551;DHT22;16488;52.396;10.696;2023-06-26T10:16:31;27.40;99.70
29551;DHT22;16488;52.396;10.696;2023-06-26T10:19:04;27.50;99.90
29551;DHT22;16488;52.396;10.696;2023-06-26T10:21:32;27.30;99.90
29551;DHT22;16488;52.396;10.696;2023-06-26T10:24:00;27.30;99.90
29551;DHT22;16488;52.396;10.696;2023-06-26T10:26:26;27.30;99.90
29551;DHT22;16488;52.396;10.696;2023-06-26T10:28:54;27.30;99.90
29551;DHT22;16488;52.396;10.696;2023-06-26T10:31:23;27.40;99.90
29551;DHT22;16488;52.396;10.696;2023-06-26T10:33:49;27.60;99.90
29551;DHT22;16488;52.396;10.696;2023-06-26T10:36:21;27.70;99.90
29551;DHT22;16488;52.396;10.696;2023-06-26T10:38:53;27.70;99.90
29551;DHT22;16488;52.396;10.696;2023-06-26T10:41:21;27.50;99.90
29551;DHT22;16488;52.396;10.696;2023-06-26T10:44:16;27.30;99.90
29551;DHT22;16488;52.396;10.696;2023-06-26T10:46:54;27.30;99.90
29551;DHT22;16488;52.396;10.696;2023-06-26T10:49:25;27.20;99.90
29551;DHT22;16488;52.396;10.696;2023-06-26T10:51:51;27.40;99.90
29551;DHT22;16488;52.396;10.696;2023-06-26T10:54:18;27.40;99.90
29551;DHT22;16488;52.396;10.696;2023-06-26T10:56:48;27.50;99.90
29551;DHT22;16488;52.396;10.696;2023-06-26T10:59:19;27.50;99.90
29551;DHT22;16488;52.396;10.696;2023-06-26T11:02:05;27.50;99.90
29551;DHT22;16488;52.396;10.696;2023-06-26T11:04:37;27.30;99.90
29551;DHT22;16488;52.396;10.696;2023-06-26T11:07:20;27.10;99.90
29551;DHT22;16488;52.396;10.696;2023-06-26T11:09:59;26.90;99.90
29551;DHT22;16488;52.396;10.696;2023-06-26T11:12:44;26.80;99.90
29551;DHT22;16488;52.396;10.696;2023-06-26T11:15:15;26.50;99.90
29551;DHT22;16488;52.396;10.696;2023-06-26T11:17:42;26.30;99.90
29551;DHT22;16488;52.396;10.696;2023-06-26T11:20:10;26.40;99.90
29551;DHT22;16488;52.396;10.696;2023-06-26T11:22:37;26.50;99.90
29551;DHT22;16488;52.396;10.696;2023-06-26T11:25:04;26.50;99.90
29551;DHT22;16488;52.396;10.696;2023-06-26T11:27:32;26.40;99.90
29551;DHT22;16488;52.396;10.696;2023-06-26T11:29:57;26.40;99.90
29551;DHT22;16488;52.396;10.696;2023-06-26T11:32:26;26.20;99.90
29551;DHT22;16488;52.396;10.696;2023-06-26T11:34:51;26.00;99.90
29551;DHT22;16488;52.396;10.696;2023-06-26T11:37:17;25.90;99.90
29551;DHT22;16488;52.396;10.696;2023-06-26T11:39:43;25.60;99.90
29551;DHT22;16488;52.396;10.696;2023-06-26T11:42:10;25.50;99.90
29551;DHT22;16488;52.396;10.696;2023-06-26T11:44:43;25.30;99.90
29551;DHT22;16488;52.396;10.696;2023-06-26T11:47:19;25.20;99.90
29551;DHT22;16488;52.396;10.696;2023-06-26T11:49:47;25.10;99.90
29551;DHT22;16488;52.396;10.696;2023-06-26T11:52:14;25.10;99.90
29551;DHT22;16488;52.396;10.696;2023-06-26T11:54:41;24.90;99.90
29551;DHT22;16488;52.396;10.696;2023-06-26T11:57:07;24.70;99.90
29551;DHT22;16488;52.396;10.696;2023-06-26T11:59:34;24.50;99.90
29551;DHT22;16488;52.396;10.696;2023-06-26T12:02:04;24.30;99.90
29551;DHT22;16488;52.396;10.696;2023-06-26T12:04:30;24.10;99.90
29551;DHT22;16488;52.396;10.696;2023-06-26T12:06:56;23.90;99.90
29551;DHT22;16488;52.396;10.696;2023-06-26T12:09:26;23.80;99.90
29551;DHT22;16488;52.396;10.696;2023-06-26T12:11:54;23.70;99.90
29551;DHT22;16488;52.396;10.696;2023-06-26T12:14:22;23.50;99.90
29551;DHT22;16488;52.396;10.696;2023-06-26T12:16:48;23.20;99.90
29551;DHT22;16488;52.396;10.696;2023-06-26T12:19:14;23.10;99.90
29551;DHT22;16488;52.396;10.696;2023-06-26T12:24:08;23.00;99.90
29551;DHT22;16488;52.396;10.696;2023-06-26T12:26:34;23.00;99.90
29551;DHT22;16488;52.396;10.696;2023-06-26T12:29:13;22.80;99.90
29551;DHT22;16488;52.396;10.696;2023-06-26T12:31:44;22.70;99.90
29551;DHT22;16488;52.396;10.696;2023-06-26T12:34:14;22.70;99.90
29551;DHT22;16488;52.396;10.696;2023-06-26T12:36:48;22.60;99.90
29551;DHT22;16488;52.396;10.696;2023-06-26T12:39:19;22.60;99.90
29551;DHT22;16488;52.396;10.696;2023-06-26T12:44:18;22.50;99.90
29551;DHT22;16488;52.396;10.696;2023-06-26T12:46:46;22.50;99.90
29551;DHT22;16488;52.396;10.696;2023-06-26T12:49:12;22.30;99.90
29551;DHT22;16488;52.396;10.696;2023-06-26T12:51:38;22.30;99.90
29551;DHT22;16488;52.396;10.696;2023-06-26T12:54:05;22.30;99.90
29551;DHT22;16488;52.396;10.696;2023-06-26T12:56:31;22.40;99.90
29551;DHT22;16488;52.396;10.696;2023-06-26T12:58:57;22.40;99.90
29551;DHT22;16488;52.396;10.696;2023-06-26T13:01:23;22.50;99.90
29551;DHT22;16488;52.396;10.696;2023-06-26T13:03:50;22.70;99.90
29551;DHT22;16488;52.396;10.696;2023-06-26T13:06:16;22.80;99.90
29551;DHT22;16488;52.396;10.696;2023-06-26T13:08:42;23.00;99.90
29551;DHT22;16488;52.396;10.696;2023-06-26T13:11:09;23.10;99.90
29551;DHT22;16488;52.396;10.696;2023-06-26T13:13:35;23.10;99.90
29551;DHT22;16488;52.396;10.696;2023-06-26T13:16:00;23.10;99.90
29551;DHT22;16488;52.396;10.696;2023-06-26T13:18:27;23.00;99.90
29551;DHT22;16488;52.396;10.696;2023-06-26T13:20:53;22.80;99.90
29551;DHT22;16488;52.396;10.696;2023-06-26T13:23:18;22.80;99.90
29551;DHT22;16488;52.396;10.696;2023-06-26T13:25:45;22.80;99.90
29551;DHT22;16488;52.396;10.696;2023-06-26T13:28:10;22.90;99.90
29551;DHT22;16488;52.396;10.696;2023-06-26T13:30:36;22.90;99.90
29551;DHT22;16488;52.396;10.696;2023-06-26T13:33:01;22.90;99.90
29551;DHT22;16488;52.396;10.696;2023-06-26T13:35:27;22.90;99.90
29551;DHT22;16488;52.396;10.696;2023-06-26T13:37:53;22.90;99.90
29551;DHT22;16488;52.396;10.696;2023-06-26T13:40:19;22.90;99.90
29551;DHT22;16488;52.396;10.696;2023-06-26T13:42:44;23.00;99.90
29551;DHT22;16488;52.396;10.696;2023-06-26T13:45:10;23.20;99.90
29551;DHT22;16488;52.396;10.696;2023-06-26T13:47:36;23.30;99.90
29551;DHT22;16488;52.396;10.696;2023-06-26T13:50:07;23.50;99.90
29551;DHT22;16488;52.396;10.696;2023-06-26T13:52:32;23.60;99.90
29551;DHT22;16488;52.396;10.696;2023-06-26T13:54:58;23.60;99.90
29551;DHT22;16488;52.396;10.696;2023-06-26T13:57:23;23.50;99.90
29551;DHT22;16488;52.396;10.696;2023-06-26T13:59:49;23.50;99.90
29551;DHT22;16488;52.396;10.696;2023-06-26T14:02:15;23.60;99.90
29551;DHT22;16488;52.396;10.696;2023-06-26T14:04:40;23.60;99.90
29551;DHT22;16488;52.396;10.696;2023-06-26T14:07:06;23.60;99.90
29551;DHT22;16488;52.396;10.696;2023-06-26T14:09:32;23.80;99.90
29551;DHT22;16488;52.396;10.696;2023-06-26T14:11:58;23.80;99.90
29551;DHT22;16488;52.396;10.696;2023-06-26T14:14:24;23.90;99.90
29551;DHT22;16488;52.396;10.696;2023-06-26T14:16:50;23.90;99.90
29551;DHT22;16488;52.396;10.696;2023-06-26T14:19:16;24.00;99.90
29551;DHT22;16488;52.396;10.696;2023-06-26T14:21:43;24.00;99.90
29551;DHT22;16488;52.396;10.696;2023-06-26T14:24:08;23.90;99.90
29551;DHT22;16488;52.396;10.696;2023-06-26T14:26:34;23.90;99.90
29551;DHT22;16488;52.396;10.696;2023-06-26T14:29:00;23.90;99.90
29551;DHT22;16488;52.396;10.696;2023-06-26T14:31:26;23.90;99.90
29551;DHT22;16488;52.396;10.696;2023-06-26T14:33:52;23.90;99.90
29551;DHT22;16488;52.396;10.696;2023-06-26T14:36:17;23.80;99.90
29551;DHT22;16488;52.396;10.696;2023-06-26T14:38:44;23.80;99.90
29551;DHT22;16488;52.396;10.696;2023-06-26T14:41:10;23.80;99.90
29551;DHT22;16488;52.396;10.696;2023-06-26T14:43:36;23.70;99.90
29551;DHT22;16488;52.396;10.696;2023-06-26T14:46:01;23.80;99.90
29551;DHT22;16488;52.396;10.696;2023-06-26T14:48:27;23.70;99.90
29551;DHT22;16488;52.396;10.696;2023-06-26T14:50:52;23.80;99.90
29551;DHT22;16488;52.396;10.696;2023-06-26T14:53:18;23.80;99.90
29551;DHT22;16488;52.396;10.696;2023-06-26T14:55:44;23.80;99.90
29551;DHT22;16488;52.396;10.696;2023-06-26T14:58:09;23.80;99.90
29551;DHT22;16488;52.396;10.696;2023-06-26T15:00:35;23.70;99.90
29551;DHT22;16488;52.396;10.696;2023-06-26T15:03:00;23.80;99.90
29551;DHT22;16488;52.396;10.696;2023-06-26T15:05:26;23.70;99.90
29551;DHT22;16488;52.396;10.696;2023-06-26T15:07:51;23.60;99.90
29551;DHT22;16488;52.396;10.696;2023-06-26T15:10:17;23.60;99.90
29551;DHT22;16488;52.396;10.696;2023-06-26T15:12:43;23.60;99.90
29551;DHT22;16488;52.396;10.696;2023-06-26T15:15:09;23.60;99.90
29551;DHT22;16488;52.396;10.696;2023-06-26T15:17:35;23.60;99.90
29551;DHT22;16488;52.396;10.696;2023-06-26T15:20:01;23.70;99.90
29551;DHT22;16488;52.396;10.696;2023-06-26T15:22:27;23.80;99.90
29551;DHT22;16488;52.396;10.696;2023-06-26T15:24:53;24.00;99.90
29551;DHT22;16488;52.396;10.696;2023-06-26T15:27:18;24.20;99.90